createdAt,value
2018-09-05T00:00:11.244Z,25.00
2018-09-05T00:01:11.267Z,24.80
2018-09-05T00:02:11.241Z,24.00
2018-09-05T00:03:11.216Z,24.00
2018-09-05T00:04:11.511Z,23.00
2018-09-05T00:05:11.193Z,23.10
2018-09-05T00:06:11.197Z,23.30
2018-09-05T00:07:11.168Z,23.70
2018-09-05T00:08:11.171Z,25.30
2018-09-05T00:09:11.168Z,22.10
2018-09-05T00:10:11.160Z,23.20
2018-09-05T00:11:11.126Z,23.90
2018-09-05T00:12:11.114Z,22.00
2018-09-05T00:13:11.112Z,21.60
2018-09-05T00:14:11.183Z,25.00
2018-09-05T00:15:11.171Z,22.20
2018-09-05T00:16:11.101Z,21.70
2018-09-05T00:17:11.061Z,24.20
2018-09-05T00:18:11.050Z,22.20
2018-09-05T00:19:11.046Z,21.80
2018-09-05T00:20:11.082Z,22.60
2018-09-05T00:21:11.030Z,24.40
2018-09-05T00:22:11.041Z,25.00
2018-09-05T00:23:10.996Z,22.00
2018-09-05T00:24:11.026Z,24.00
2018-09-05T00:25:10.987Z,24.70
2018-09-05T00:26:10.990Z,23.00
2018-09-05T00:27:10.962Z,24.60
2018-09-05T00:28:10.955Z,23.30
2018-09-05T00:29:10.953Z,24.70
2018-09-05T00:30:10.932Z,24.10
2018-09-05T00:31:10.978Z,24.60
2018-09-05T00:32:10.925Z,23.00
2018-09-05T00:33:10.893Z,23.20
2018-09-05T00:34:10.894Z,25.60
2018-09-05T00:35:10.900Z,21.90
2018-09-05T00:36:10.859Z,22.70
2018-09-05T00:37:10.879Z,21.50
2018-09-05T00:38:10.840Z,23.20
2018-09-05T00:39:10.843Z,25.90
2018-09-05T00:40:10.832Z,22.80
2018-09-05T00:41:10.817Z,24.00
2018-09-05T00:42:10.837Z,21.90
2018-09-05T00:43:10.801Z,24.20
2018-09-05T00:44:10.784Z,23.60
2018-09-05T00:45:10.800Z,23.70
2018-09-05T00:46:10.771Z,25.70
2018-09-05T00:47:10.809Z,25.40
2018-09-05T00:48:10.761Z,23.90
2018-09-05T00:49:10.725Z,21.80
2018-09-05T00:50:10.742Z,21.80
2018-09-05T00:51:10.714Z,21.60
2018-09-05T00:52:10.708Z,21.60
2018-09-05T00:53:10.737Z,23.00
2018-09-05T00:54:10.673Z,22.20
2018-09-05T00:55:10.668Z,25.80
2018-09-05T00:56:10.671Z,24.20
2018-09-05T00:57:10.643Z,24.10
2018-09-05T00:58:10.651Z,24.80
2018-09-05T00:59:10.660Z,24.00
2018-09-05T01:00:10.611Z,26.20
2018-09-05T01:01:10.594Z,23.50
2018-09-05T01:02:10.598Z,21.90
2018-09-05T01:03:10.577Z,23.60
2018-09-05T01:04:10.594Z,24.80
2018-09-05T01:05:10.555Z,27.50
2018-09-05T01:06:10.548Z,23.80
2018-09-05T01:07:10.539Z,21.70
2018-09-05T01:08:10.569Z,24.20
2018-09-05T01:09:10.518Z,23.60
2018-09-05T01:10:10.534Z,25.20
2018-09-05T01:11:10.513Z,23.20
2018-09-05T01:12:10.479Z,26.00
2018-09-05T01:13:10.468Z,22.70
2018-09-05T01:14:10.494Z,24.60
2018-09-05T01:15:10.520Z,24.50
2018-09-05T01:16:10.461Z,23.90
2018-09-05T01:17:10.490Z,24.10
2018-09-05T01:18:10.415Z,22.60
2018-09-05T01:19:10.405Z,22.80
2018-09-05T01:20:10.405Z,23.60
2018-09-05T01:21:10.414Z,24.90
2018-09-05T01:22:10.409Z,23.70
2018-09-05T01:23:10.378Z,25.70
2018-09-05T01:24:10.381Z,23.80
2018-09-05T01:25:10.344Z,22.90
2018-09-05T01:26:10.367Z,24.10
2018-09-05T01:27:10.323Z,23.60
2018-09-05T01:28:10.323Z,24.50
2018-09-05T01:29:10.311Z,24.20
2018-09-05T01:30:10.292Z,25.30
2018-09-05T01:31:10.291Z,22.50
2018-09-05T01:32:10.319Z,23.00
2018-09-05T01:33:10.269Z,26.30
2018-09-05T01:34:10.264Z,24.50
2018-09-05T01:35:10.239Z,24.50
2018-09-05T01:36:10.268Z,24.40
2018-09-05T01:37:10.253Z,23.80
2018-09-05T01:38:10.234Z,24.10
2018-09-05T01:39:10.237Z,22.30
2018-09-05T01:40:10.202Z,23.40
2018-09-05T01:41:10.182Z,22.30
2018-09-05T01:42:10.234Z,26.10
2018-09-05T01:43:10.154Z,25.20
2018-09-05T01:44:10.182Z,24.80
2018-09-05T01:45:10.133Z,26.70
2018-09-05T01:46:10.129Z,28.00
2018-09-05T01:47:10.142Z,26.70
2018-09-05T01:48:10.124Z,23.20
2018-09-05T01:49:10.092Z,29.00
2018-09-05T01:50:10.083Z,27.30
2018-09-05T01:51:10.145Z,26.10
2018-09-05T01:52:10.061Z,29.10
2018-09-05T01:53:10.098Z,24.40
2018-09-05T01:54:10.044Z,27.40
2018-09-05T01:55:10.027Z,31.50
2018-09-05T01:56:10.016Z,29.40
2018-09-05T01:57:10.006Z,26.30
2018-09-05T01:58:10.029Z,26.40
2018-09-05T01:59:09.994Z,24.40
2018-09-05T02:00:09.980Z,26.40
2018-09-05T02:01:09.984Z,26.30
2018-09-05T02:02:09.953Z,25.50
2018-09-05T02:03:09.956Z,25.40
2018-09-05T02:04:10.008Z,26.10
2018-09-05T02:05:09.938Z,26.80
2018-09-05T02:06:09.908Z,24.90
2018-09-05T02:07:09.927Z,27.40
2018-09-05T02:08:09.916Z,29.20
2018-09-05T02:09:09.922Z,30.40
2018-09-05T02:10:09.870Z,28.80
2018-09-05T02:11:09.940Z,32.20
2018-09-05T02:12:09.848Z,29.50
2018-09-05T02:13:09.838Z,30.90
2018-09-05T02:14:09.917Z,32.50
2018-09-05T02:15:09.817Z,32.40
2018-09-05T02:16:09.801Z,29.60
2018-09-05T02:17:09.792Z,32.00
2018-09-05T02:18:09.783Z,33.00
2018-09-05T02:19:09.809Z,30.30
2018-09-05T02:20:09.771Z,30.90
2018-09-05T02:21:09.757Z,29.30
2018-09-05T02:22:09.739Z,30.40
2018-09-05T02:23:09.729Z,30.40
2018-09-05T02:24:09.715Z,32.10
2018-09-05T02:25:09.755Z,29.30
2018-09-05T02:26:09.723Z,30.70
2018-09-05T02:27:09.682Z,34.90
2018-09-05T02:28:09.692Z,31.60
2018-09-05T02:29:09.673Z,29.60
2018-09-05T02:30:09.775Z,31.90
2018-09-05T02:31:09.643Z,34.10
2018-09-05T02:32:09.647Z,31.30
2018-09-05T02:33:09.638Z,29.60
2018-09-05T02:34:09.623Z,34.00
2018-09-05T02:35:09.611Z,32.00
2018-09-05T02:36:09.612Z,31.20
2018-09-05T02:37:09.580Z,29.40
2018-09-05T02:38:09.566Z,32.80
2018-09-05T02:39:09.559Z,31.90
2018-09-05T02:40:09.579Z,32.40
2018-09-05T02:41:09.563Z,30.50
2018-09-05T02:42:09.525Z,32.20
2018-09-05T02:43:09.520Z,31.30
2018-09-05T02:44:09.514Z,30.70
2018-09-05T02:45:09.496Z,34.00
2018-09-05T02:46:09.520Z,31.40
2018-09-05T02:47:09.481Z,36.80
2018-09-05T02:48:09.474Z,33.60
2018-09-05T02:49:09.454Z,30.30
2018-09-05T02:50:09.442Z,33.70
2018-09-05T02:51:09.470Z,36.20
2018-09-05T02:52:09.420Z,37.40
2018-09-05T02:53:09.439Z,36.70
2018-09-05T02:54:09.410Z,34.90
2018-09-05T02:55:09.410Z,39.50
2018-09-05T02:56:09.417Z,35.00
2018-09-05T02:57:09.366Z,32.10
2018-09-05T02:58:09.364Z,37.00
2018-09-05T02:59:09.347Z,37.40
2018-09-05T03:00:09.375Z,35.00
2018-09-05T03:01:09.361Z,36.10
2018-09-05T03:02:09.320Z,34.40
2018-09-05T03:03:09.306Z,34.10
2018-09-05T03:04:09.290Z,36.80
2018-09-05T03:05:09.286Z,36.60
2018-09-05T03:06:09.293Z,34.80
2018-09-05T03:07:09.263Z,37.60
2018-09-05T03:08:09.265Z,33.70
2018-09-05T03:09:09.295Z,34.30
2018-09-05T03:10:09.233Z,38.00
2018-09-05T03:11:09.290Z,36.90
2018-09-05T03:12:09.213Z,37.30
2018-09-05T03:13:09.216Z,38.50
2018-09-05T03:14:09.217Z,36.10
2018-09-05T03:15:09.175Z,37.80
2018-09-05T03:16:09.275Z,33.20
2018-09-05T03:17:09.156Z,35.30
2018-09-05T03:18:09.143Z,35.20
2018-09-05T03:19:09.132Z,34.40
2018-09-05T03:20:09.126Z,36.60
2018-09-05T03:21:09.153Z,31.80
2018-09-05T03:22:09.105Z,32.90
2018-09-05T03:23:09.093Z,33.30
2018-09-05T03:24:09.085Z,35.50
2018-09-05T03:25:09.104Z,30.10
2018-09-05T03:26:09.057Z,37.00
2018-09-05T03:27:09.109Z,36.90
2018-09-05T03:28:09.034Z,39.40
2018-09-05T03:29:09.031Z,36.40
2018-09-05T03:30:09.025Z,33.60
2018-09-05T03:31:09.004Z,33.60
2018-09-05T03:32:09.035Z,33.50
2018-09-05T03:33:09.111Z,44.30
2018-09-05T03:34:08.985Z,35.60
2018-09-05T03:35:08.967Z,32.40
2018-09-05T03:36:08.949Z,35.50
2018-09-05T03:37:08.972Z,35.50
2018-09-05T03:38:08.931Z,36.10
2018-09-05T03:39:08.971Z,36.10
2018-09-05T03:40:08.910Z,36.40
2018-09-05T03:41:08.894Z,36.30
2018-09-05T03:42:08.898Z,39.60
2018-09-05T03:43:08.905Z,40.10
2018-09-05T03:44:08.863Z,36.30
2018-09-05T03:45:08.896Z,40.30
2018-09-05T03:46:08.843Z,40.60
2018-09-05T03:47:08.842Z,41.60
2018-09-05T03:48:08.846Z,42.30
2018-09-05T03:49:08.825Z,40.20
2018-09-05T03:50:08.799Z,42.50
2018-09-05T03:51:08.790Z,43.60
2018-09-05T03:52:08.831Z,43.30
2018-09-05T03:53:08.811Z,37.40
2018-09-05T03:54:08.757Z,38.70
2018-09-05T03:55:08.750Z,36.30
2018-09-05T03:56:08.732Z,35.40
2018-09-05T03:57:08.728Z,33.40
2018-09-05T03:58:08.758Z,35.10
2018-09-05T03:59:08.699Z,32.40
2018-09-05T04:00:08.692Z,33.60
2018-09-05T04:01:08.680Z,31.60
2018-09-05T04:02:08.917Z,30.80
2018-09-05T04:03:08.657Z,34.20
2018-09-05T04:04:08.683Z,33.90
2018-09-05T04:05:08.763Z,32.70
2018-09-05T04:06:08.632Z,34.70
2018-09-05T04:07:08.613Z,30.20
2018-09-05T04:08:08.606Z,33.50
2018-09-05T04:09:08.655Z,30.20
2018-09-05T04:10:08.633Z,30.90
2018-09-05T04:11:08.589Z,34.00
2018-09-05T04:12:08.611Z,27.60
2018-09-05T04:13:08.583Z,30.20
2018-09-05T04:14:08.594Z,30.40
2018-09-05T04:15:08.526Z,37.00
2018-09-05T04:16:08.532Z,29.50
2018-09-05T04:17:08.517Z,31.00
2018-09-05T04:18:08.495Z,30.00
2018-09-05T04:19:08.482Z,28.60
2018-09-05T04:20:08.500Z,33.30
2018-09-05T04:21:08.463Z,29.70
2018-09-05T04:22:08.554Z,30.10
2018-09-05T04:23:08.469Z,28.60
2018-09-05T04:24:08.440Z,30.80
2018-09-05T04:25:08.443Z,31.50
2018-09-05T04:26:08.408Z,30.80
2018-09-05T04:27:08.429Z,30.40
2018-09-05T04:28:08.385Z,32.70
2018-09-05T04:29:08.429Z,33.40
2018-09-05T04:30:08.389Z,34.50
2018-09-05T04:31:08.352Z,32.40
2018-09-05T04:32:08.342Z,34.90
2018-09-05T04:33:08.335Z,34.70
2018-09-05T04:34:08.350Z,34.80
2018-09-05T04:35:08.347Z,36.30
2018-09-05T04:36:08.305Z,38.20
2018-09-05T04:37:08.369Z,39.30
2018-09-05T04:38:08.277Z,40.40
2018-09-05T04:39:08.307Z,40.20
2018-09-05T04:40:08.267Z,34.60
2018-09-05T04:41:08.329Z,39.70
2018-09-05T04:42:08.278Z,39.00
2018-09-05T04:43:08.224Z,36.00
2018-09-05T04:44:08.321Z,37.80
2018-09-05T04:45:08.303Z,38.20
2018-09-05T04:46:08.254Z,39.00
2018-09-05T04:47:08.199Z,41.50
2018-09-05T04:48:08.189Z,39.10
2018-09-05T04:49:08.218Z,40.60
2018-09-05T04:50:08.154Z,44.60
2018-09-05T04:51:08.137Z,38.90
2018-09-05T04:52:08.191Z,43.90
2018-09-05T04:53:08.116Z,46.20
2018-09-05T04:54:08.131Z,49.90
2018-09-05T04:55:08.099Z,51.30
2018-09-05T04:56:08.087Z,53.30
2018-09-05T04:57:08.148Z,44.30
2018-09-05T04:58:08.063Z,52.40
2018-09-05T04:59:08.059Z,57.10
2018-09-05T05:00:08.059Z,54.50
2018-09-05T05:01:08.036Z,54.50
2018-09-05T05:02:08.051Z,50.90
2018-09-05T05:03:08.031Z,61.00
2018-09-05T05:04:08.020Z,50.60
2018-09-05T05:05:07.985Z,56.20
2018-09-05T05:06:07.980Z,50.60
2018-09-05T05:07:08.011Z,55.40
2018-09-05T05:08:07.966Z,59.30
2018-09-05T05:09:07.984Z,54.50
2018-09-05T05:10:07.951Z,60.70
2018-09-05T05:11:07.940Z,55.30
2018-09-05T05:12:07.957Z,53.20
2018-09-05T05:13:07.918Z,54.10
2018-09-05T05:14:07.921Z,53.10
2018-09-05T05:15:07.935Z,51.80
2018-09-05T05:16:07.866Z,59.30
2018-09-05T05:17:07.883Z,61.60
2018-09-05T05:18:07.883Z,60.20
2018-09-05T05:19:07.885Z,57.10
2018-09-05T05:20:07.857Z,58.40
2018-09-05T05:21:07.823Z,58.20
2018-09-05T05:22:07.834Z,60.70
2018-09-05T05:23:07.830Z,65.20
2018-09-05T05:24:07.781Z,56.40
2018-09-05T05:25:07.806Z,50.00
2018-09-05T05:26:07.760Z,52.70
2018-09-05T05:27:07.765Z,55.50
2018-09-05T05:28:07.759Z,50.50
2018-09-05T05:29:07.759Z,44.20
2018-09-05T05:30:07.715Z,46.20
2018-09-05T05:31:07.714Z,44.50
2018-09-05T05:32:07.696Z,47.40
2018-09-05T05:33:07.686Z,41.40
2018-09-05T05:34:07.711Z,41.60
2018-09-05T05:35:07.663Z,41.70
2018-09-05T05:36:07.654Z,39.80
2018-09-05T05:37:07.644Z,39.40
2018-09-05T05:38:07.632Z,38.40
2018-09-05T05:39:07.664Z,40.50
2018-09-05T05:40:07.651Z,40.70
2018-09-05T05:41:07.607Z,36.90
2018-09-05T05:42:07.597Z,35.30
2018-09-05T05:43:07.578Z,38.20
2018-09-05T05:44:07.572Z,32.40
2018-09-05T05:45:07.576Z,34.30
2018-09-05T05:46:07.580Z,35.00
2018-09-05T05:47:07.578Z,36.50
2018-09-05T05:48:07.630Z,32.40
2018-09-05T05:49:07.521Z,32.00
2018-09-05T05:50:07.530Z,30.40
2018-09-05T05:51:07.503Z,30.10
2018-09-05T05:52:07.489Z,29.70
2018-09-05T05:53:07.470Z,31.40
2018-09-05T05:54:07.476Z,32.30
2018-09-05T05:55:07.499Z,31.40
2018-09-05T05:56:07.482Z,30.10
2018-09-05T05:57:07.459Z,28.80
2018-09-05T05:58:07.426Z,33.40
2018-09-05T05:59:07.415Z,34.30
2018-09-05T06:00:07.399Z,31.40
2018-09-05T06:01:07.434Z,30.30
2018-09-05T06:02:07.390Z,32.70
2018-09-05T06:03:07.379Z,31.30
2018-09-05T06:04:07.381Z,28.20
2018-09-05T06:05:07.344Z,30.60
2018-09-05T06:06:07.451Z,29.60
2018-09-05T06:07:07.366Z,29.70
2018-09-05T06:08:07.313Z,31.80
2018-09-05T06:09:07.299Z,32.20
2018-09-05T06:10:07.307Z,27.10
2018-09-05T06:11:07.284Z,30.80
2018-09-05T06:12:07.337Z,27.50
2018-09-05T06:13:07.282Z,30.40
2018-09-05T06:14:07.251Z,28.20
2018-09-05T06:15:07.240Z,27.60
2018-09-05T06:16:07.241Z,32.20
2018-09-05T06:17:07.280Z,29.20
2018-09-05T06:18:07.203Z,27.70
2018-09-05T06:19:07.198Z,31.20
2018-09-05T06:20:07.195Z,32.00
2018-09-05T06:21:07.289Z,30.70
2018-09-05T06:22:07.225Z,35.00
2018-09-05T06:23:07.190Z,30.80
2018-09-05T06:24:07.279Z,28.10
2018-09-05T06:25:07.149Z,26.80
2018-09-05T06:26:07.147Z,27.30
2018-09-05T06:27:07.117Z,26.30
2018-09-05T06:28:07.141Z,34.00
2018-09-05T06:29:07.083Z,28.60
2018-09-05T06:30:07.083Z,25.50
2018-09-05T06:31:07.251Z,26.90
2018-09-05T06:32:07.066Z,26.10
2018-09-05T06:33:07.096Z,24.60
2018-09-05T06:34:07.085Z,29.50
2018-09-05T06:35:07.056Z,25.10
2018-09-05T06:36:07.005Z,24.20
2018-09-05T06:37:07.017Z,26.20
2018-09-05T06:38:07.035Z,27.00
2018-09-05T06:39:07.007Z,25.90
2018-09-05T06:40:06.991Z,27.70
2018-09-05T06:41:06.968Z,27.00
2018-09-05T06:42:06.956Z,26.60
2018-09-05T06:43:06.958Z,29.90
2018-09-05T06:44:06.931Z,30.90
2018-09-05T06:45:07.068Z,31.60
2018-09-05T06:46:06.903Z,30.30
2018-09-05T06:47:06.895Z,29.60
2018-09-05T06:48:06.902Z,30.60
2018-09-05T06:49:06.870Z,28.40
2018-09-05T06:50:06.877Z,29.20
2018-09-05T06:51:06.850Z,27.90
2018-09-05T06:52:06.839Z,29.40
2018-09-05T06:53:06.855Z,31.30
2018-09-05T06:54:06.824Z,30.10
2018-09-05T06:55:06.815Z,31.30
2018-09-05T06:56:06.796Z,30.90
2018-09-05T06:57:06.801Z,30.50
2018-09-05T06:58:06.841Z,28.40
2018-09-05T06:59:06.797Z,31.30
2018-09-05T07:00:06.793Z,28.40
2018-09-05T07:01:06.749Z,28.90
2018-09-05T07:02:06.735Z,26.40
2018-09-05T07:03:06.754Z,26.20
2018-09-05T07:04:06.743Z,27.70
2018-09-05T07:05:06.710Z,27.40
2018-09-05T07:06:06.705Z,25.60
2018-09-05T07:07:06.806Z,24.70
2018-09-05T07:08:06.687Z,26.60
2018-09-05T07:09:06.697Z,26.10
2018-09-05T07:10:06.758Z,29.20
2018-09-05T07:11:06.644Z,24.60
2018-09-05T07:12:06.627Z,24.20
2018-09-05T07:13:06.635Z,25.30
2018-09-05T07:14:06.668Z,23.10
2018-09-05T07:15:06.614Z,23.70
2018-09-05T07:16:06.581Z,25.90
2018-09-05T07:17:06.594Z,24.80
2018-09-05T07:18:06.566Z,29.50
2018-09-05T07:19:06.589Z,26.10
2018-09-05T07:20:06.548Z,23.40
2018-09-05T07:21:06.579Z,27.60
2018-09-05T07:22:06.592Z,25.40
2018-09-05T07:23:06.527Z,23.80
2018-09-05T07:24:06.507Z,27.50
2018-09-05T07:25:06.674Z,28.40
2018-09-05T07:26:06.491Z,25.10
2018-09-05T07:27:06.468Z,26.30
2018-09-05T07:28:06.508Z,25.80
2018-09-05T07:29:06.465Z,27.80
2018-09-05T07:30:06.460Z,26.20
2018-09-05T07:31:06.425Z,31.70
2018-09-05T07:32:06.420Z,28.40
2018-09-05T07:33:06.408Z,27.70
2018-09-05T07:34:06.411Z,29.30
2018-09-05T07:35:06.418Z,26.50
2018-09-05T07:36:06.371Z,26.90
2018-09-05T07:37:06.360Z,26.20
2018-09-05T07:38:06.354Z,24.40
2018-09-05T07:39:06.348Z,28.70
2018-09-05T07:40:06.330Z,30.50
2018-09-05T07:41:06.377Z,28.40
2018-09-05T07:42:06.309Z,27.40
2018-09-05T07:43:06.319Z,29.80
2018-09-05T07:44:06.291Z,29.40
2018-09-05T07:45:06.276Z,27.60
2018-09-05T07:46:06.322Z,27.60
2018-09-05T07:47:06.260Z,28.20
2018-09-05T07:48:06.257Z,26.80
2018-09-05T07:49:06.229Z,29.20
2018-09-05T07:50:06.239Z,28.70
2018-09-05T07:51:06.426Z,29.20
2018-09-05T07:52:06.216Z,26.50
2018-09-05T07:53:06.191Z,28.80
2018-09-05T07:54:06.195Z,26.20
2018-09-05T07:55:06.170Z,25.50
2018-09-05T07:56:06.210Z,25.70
2018-09-05T07:57:06.156Z,26.10
2018-09-05T07:58:06.159Z,26.60
2018-09-05T07:59:06.145Z,27.10
2018-09-05T08:00:06.111Z,24.10
2018-09-05T08:01:06.138Z,26.10
2018-09-05T08:02:06.160Z,26.00
2018-09-05T08:03:06.092Z,27.00
2018-09-05T08:04:06.087Z,25.30
2018-09-05T08:05:06.063Z,26.50
2018-09-05T08:06:06.072Z,26.60
2018-09-05T08:07:06.077Z,27.80
2018-09-05T08:08:06.104Z,26.00
2018-09-05T08:09:06.078Z,26.00
2018-09-05T08:10:06.032Z,23.30
2018-09-05T08:11:06.025Z,23.20
2018-09-05T08:12:06.008Z,23.10
2018-09-05T08:13:05.981Z,22.70
2018-09-05T08:14:05.973Z,22.60
2018-09-05T08:15:05.978Z,24.50
2018-09-05T08:16:06.018Z,23.30
2018-09-05T08:17:05.937Z,21.40
2018-09-05T08:18:05.985Z,25.40
2018-09-05T08:19:05.923Z,24.60
2018-09-05T08:20:05.904Z,25.30
2018-09-05T08:21:05.952Z,22.90
2018-09-05T08:22:05.886Z,22.40
2018-09-05T08:23:05.903Z,21.30
2018-09-05T08:24:05.911Z,22.30
2018-09-05T08:25:05.851Z,21.60
2018-09-05T08:26:05.893Z,21.10
2018-09-05T08:27:05.823Z,21.60
2018-09-05T08:28:05.819Z,21.40
2018-09-05T08:29:05.854Z,21.60
2018-09-05T08:30:05.843Z,21.90
2018-09-05T08:31:05.807Z,20.80
2018-09-05T08:32:05.819Z,21.30
2018-09-05T08:33:05.762Z,21.40
2018-09-05T08:34:05.759Z,20.40
2018-09-05T08:35:05.926Z,22.10
2018-09-05T08:36:06.003Z,22.70
2018-09-05T08:37:06.039Z,20.30
2018-09-05T08:38:05.799Z,25.00
2018-09-05T08:39:05.705Z,20.30
2018-09-05T08:40:05.701Z,21.30
2018-09-05T08:41:05.681Z,21.40
2018-09-05T08:42:05.714Z,21.10
2018-09-05T08:43:05.695Z,20.70
2018-09-05T08:44:05.865Z,22.40
2018-09-05T08:45:05.905Z,22.60
2018-09-05T08:46:05.749Z,22.30
2018-09-05T08:47:05.639Z,21.60
2018-09-05T08:48:05.663Z,20.60
2018-09-05T08:49:05.589Z,20.80
2018-09-05T08:50:05.675Z,22.20
2018-09-05T08:51:05.590Z,19.60
2018-09-05T08:52:05.578Z,18.70
2018-09-05T08:53:05.629Z,17.30
2018-09-05T08:54:05.545Z,19.80
2018-09-05T08:55:05.548Z,20.40
2018-09-05T08:56:05.517Z,17.50
2018-09-05T08:57:05.515Z,16.70
2018-09-05T08:58:05.517Z,17.10
2018-09-05T08:59:05.485Z,20.10
2018-09-05T09:00:05.492Z,18.20
2018-09-05T09:01:05.483Z,13.90
2018-09-05T09:02:05.466Z,14.90
2018-09-05T09:03:05.547Z,14.90
2018-09-05T09:04:05.428Z,14.50
2018-09-05T09:05:05.485Z,14.00
2018-09-05T09:06:05.425Z,12.60
2018-09-05T09:07:05.424Z,14.70
2018-09-05T09:08:05.409Z,15.10
2018-09-05T09:09:05.434Z,15.20
2018-09-05T09:10:05.366Z,20.80
2018-09-05T09:11:05.358Z,15.60
2018-09-05T09:12:05.348Z,14.20
2018-09-05T09:13:05.346Z,13.90
2018-09-05T09:14:05.371Z,13.90
2018-09-05T09:15:05.326Z,12.60
2018-09-05T09:16:05.303Z,13.30
2018-09-05T09:17:05.313Z,14.80
2018-09-05T09:18:05.303Z,14.20
2018-09-05T09:19:05.301Z,14.50
2018-09-05T09:20:05.310Z,14.10
2018-09-05T09:21:05.279Z,12.80
2018-09-05T09:22:05.288Z,15.70
2018-09-05T09:23:05.239Z,15.00
2018-09-05T09:24:05.229Z,14.00
2018-09-05T09:25:05.269Z,15.90
2018-09-05T09:26:05.200Z,14.30
2018-09-05T09:27:05.782Z,15.20
2018-09-05T09:28:05.331Z,12.90
2018-09-05T09:29:05.243Z,14.20
2018-09-05T09:30:05.234Z,14.10
2018-09-05T09:31:05.160Z,12.90
2018-09-05T09:32:05.145Z,14.20
2018-09-05T09:33:05.149Z,13.10
2018-09-05T09:34:05.121Z,13.30
2018-09-05T09:35:05.118Z,11.20
2018-09-05T09:36:05.156Z,13.10
2018-09-05T09:37:05.100Z,13.10
2018-09-05T09:38:05.077Z,12.40
2018-09-05T09:39:05.073Z,14.40
2018-09-05T09:40:05.069Z,18.30
2018-09-05T09:41:05.141Z,13.70
2018-09-05T09:42:05.039Z,12.70
2018-09-05T09:43:05.026Z,14.90
2018-09-05T09:44:05.019Z,14.10
2018-09-05T09:45:05.033Z,14.40
2018-09-05T09:46:05.015Z,14.60
2018-09-05T09:47:04.999Z,14.70
2018-09-05T09:48:04.984Z,12.40
2018-09-05T09:49:04.963Z,12.70
2018-09-05T09:50:04.966Z,13.20
2018-09-05T09:51:04.975Z,12.10
2018-09-05T09:52:04.935Z,10.80
2018-09-05T09:53:04.942Z,13.90
2018-09-05T09:54:04.924Z,12.70
2018-09-05T09:55:04.895Z,13.90
2018-09-05T09:56:04.937Z,13.30
2018-09-05T09:57:04.881Z,14.00
2018-09-05T09:58:04.897Z,14.00
2018-09-05T09:59:04.856Z,12.80
2018-09-05T10:00:04.864Z,13.80
2018-09-05T10:01:04.870Z,14.00
2018-09-05T10:02:04.825Z,12.10
2018-09-05T10:03:04.824Z,11.90
2018-09-05T10:04:04.885Z,12.30
2018-09-05T10:05:04.795Z,10.00
2018-09-05T10:06:04.786Z,9.90
2018-09-05T10:07:04.830Z,11.60
2018-09-05T10:08:04.760Z,11.70
2018-09-05T10:09:04.754Z,9.90
2018-09-05T10:10:04.997Z,11.70
2018-09-05T10:11:04.734Z,10.10
2018-09-05T10:12:04.749Z,10.60
2018-09-05T10:13:04.717Z,11.50
2018-09-05T10:14:04.703Z,12.10
2018-09-05T10:15:04.701Z,11.10
2018-09-05T10:16:04.695Z,16.90
2018-09-05T10:17:04.708Z,10.20
2018-09-05T10:18:04.657Z,11.20
2018-09-05T10:19:04.651Z,10.30
2018-09-05T10:20:04.633Z,10.90
2018-09-05T10:21:04.654Z,13.80
2018-09-05T10:22:04.676Z,9.80
2018-09-05T10:23:04.602Z,9.30
2018-09-05T10:24:04.592Z,10.50
2018-09-05T10:25:04.590Z,11.10
2018-09-05T10:26:04.604Z,12.90
2018-09-05T10:27:04.601Z,13.50
2018-09-05T10:28:04.597Z,12.20
2018-09-05T10:29:04.547Z,12.50
2018-09-05T10:30:04.546Z,10.40
2018-09-05T10:31:04.548Z,10.50
2018-09-05T10:32:04.509Z,13.40
2018-09-05T10:33:04.527Z,10.80
2018-09-05T10:34:04.528Z,11.20
2018-09-05T10:35:04.483Z,10.10
2018-09-05T10:36:04.491Z,11.40
2018-09-05T10:37:04.475Z,13.20
2018-09-05T10:38:04.493Z,10.40
2018-09-05T10:39:04.440Z,11.20
2018-09-05T10:40:04.498Z,9.80
2018-09-05T10:41:04.417Z,9.80
2018-09-05T10:42:04.407Z,12.50
2018-09-05T10:43:04.445Z,10.70
2018-09-05T10:44:04.445Z,11.40
2018-09-05T10:45:04.384Z,12.30
2018-09-05T10:46:04.366Z,10.10
2018-09-05T10:47:04.355Z,9.10
2018-09-05T10:48:04.377Z,9.50
2018-09-05T10:49:04.348Z,10.00
2018-09-05T10:50:04.345Z,9.10
2018-09-05T10:51:04.323Z,9.10
2018-09-05T10:52:04.319Z,11.50
2018-09-05T10:53:04.359Z,10.20
2018-09-05T10:54:04.290Z,8.00
2018-09-05T10:55:04.298Z,8.80
2018-09-05T10:56:04.265Z,8.60
2018-09-05T10:57:04.276Z,9.00
2018-09-05T10:58:04.296Z,8.10
2018-09-05T10:59:04.238Z,11.00
2018-09-05T11:00:04.244Z,9.50
2018-09-05T11:01:04.256Z,11.00
2018-09-05T11:02:04.207Z,10.10
2018-09-05T11:03:04.267Z,11.20
2018-09-05T11:04:04.210Z,10.60
2018-09-05T11:05:04.195Z,12.10
2018-09-05T11:06:04.170Z,9.30
2018-09-05T11:07:04.165Z,11.40
2018-09-05T11:08:04.154Z,9.50
2018-09-05T11:09:04.187Z,10.50
2018-09-05T11:10:04.122Z,11.20
2018-09-05T11:11:04.110Z,12.10
2018-09-05T11:12:04.097Z,10.60
2018-09-05T11:13:04.089Z,10.40
2018-09-05T11:14:04.077Z,10.60
2018-09-05T11:15:04.098Z,11.00
2018-09-05T11:16:04.065Z,8.60
2018-09-05T11:17:04.058Z,8.80
2018-09-05T11:18:04.045Z,8.80
2018-09-05T11:19:04.043Z,10.70
2018-09-05T11:20:04.051Z,11.90
2018-09-05T11:21:04.012Z,15.00
2018-09-05T11:22:03.996Z,13.20
2018-09-05T11:23:03.995Z,15.20
2018-09-05T11:24:03.986Z,11.80
2018-09-05T11:25:03.990Z,12.00
2018-09-05T11:26:03.963Z,10.10
2018-09-05T11:27:03.951Z,12.00
2018-09-05T11:28:03.936Z,11.30
2018-09-05T11:29:04.023Z,12.60
2018-09-05T11:30:03.979Z,11.30
2018-09-05T11:31:03.902Z,9.60
2018-09-05T11:32:03.892Z,10.80
2018-09-05T11:33:03.880Z,11.90
2018-09-05T11:34:03.872Z,11.50
2018-09-05T11:35:03.868Z,11.80
2018-09-05T11:36:03.882Z,10.00
2018-09-05T11:37:03.937Z,10.70
2018-09-05T11:38:03.829Z,13.50
2018-09-05T11:39:03.820Z,10.70
2018-09-05T11:40:03.810Z,13.90
2018-09-05T11:41:03.825Z,11.40
2018-09-05T11:42:03.800Z,13.90
2018-09-05T11:43:03.787Z,13.30
2018-09-05T11:44:03.771Z,12.90
2018-09-05T11:45:03.758Z,13.90
2018-09-05T11:46:03.833Z,11.30
2018-09-05T11:47:03.742Z,10.70
2018-09-05T11:48:03.765Z,11.00
2018-09-05T11:49:03.722Z,12.00
2018-09-05T11:50:03.709Z,10.10
2018-09-05T11:51:03.697Z,13.10
2018-09-05T11:52:03.715Z,10.20
2018-09-05T11:53:03.702Z,11.00
2018-09-05T11:54:03.664Z,14.30
2018-09-05T11:55:03.655Z,9.80
2018-09-05T11:56:03.644Z,9.30
2018-09-05T11:57:03.667Z,9.10
2018-09-05T11:58:03.626Z,10.20
2018-09-05T11:59:03.615Z,10.10
2018-09-05T12:00:03.603Z,11.10
2018-09-05T12:01:03.593Z,13.30
2018-09-05T12:02:03.614Z,8.70
2018-09-05T12:03:03.573Z,15.80
2018-09-05T12:04:03.563Z,13.70
2018-09-05T12:05:03.689Z,11.00
2018-09-05T12:06:03.566Z,12.50
2018-09-05T12:07:03.532Z,9.30
2018-09-05T12:08:03.678Z,10.20
2018-09-05T12:09:03.517Z,10.70
2018-09-05T12:10:03.508Z,9.90
2018-09-05T12:11:03.491Z,11.40
2018-09-05T12:12:03.554Z,12.60
2018-09-05T12:13:03.520Z,9.30
2018-09-05T12:14:03.464Z,9.70
2018-09-05T12:15:03.451Z,9.60
2018-09-05T12:16:03.466Z,10.20
2018-09-05T12:17:03.431Z,9.10
2018-09-05T12:18:03.452Z,10.90
2018-09-05T12:19:03.411Z,9.70
2018-09-05T12:20:03.404Z,10.10
2018-09-05T12:21:03.390Z,10.20
2018-09-05T12:22:03.420Z,12.50
2018-09-05T12:23:03.402Z,9.40
2018-09-05T12:24:03.372Z,8.80
2018-09-05T12:25:03.374Z,10.00
2018-09-05T12:26:03.341Z,12.00
2018-09-05T12:27:03.333Z,9.30
2018-09-05T12:28:03.327Z,10.20
2018-09-05T12:29:03.364Z,9.70
2018-09-05T12:30:03.330Z,10.50
2018-09-05T12:31:03.296Z,10.20
2018-09-05T12:32:03.280Z,9.20
2018-09-05T12:33:03.273Z,9.80
2018-09-05T12:34:03.286Z,9.60
2018-09-05T12:35:03.250Z,11.90
2018-09-05T12:36:03.239Z,10.70
2018-09-05T12:37:03.227Z,11.50
2018-09-05T12:38:03.230Z,10.20
2018-09-05T12:39:03.207Z,8.80
2018-09-05T12:40:03.230Z,10.10
2018-09-05T12:41:03.186Z,9.60
2018-09-05T12:42:03.185Z,11.00
2018-09-05T12:43:03.167Z,12.70
2018-09-05T12:44:03.167Z,9.80
2018-09-05T12:45:03.180Z,8.50
2018-09-05T12:46:03.145Z,8.60
2018-09-05T12:47:03.140Z,11.30
2018-09-05T12:48:03.165Z,10.60
2018-09-05T12:49:03.106Z,11.80
2018-09-05T12:50:03.119Z,10.80
2018-09-05T12:51:03.086Z,9.40
2018-09-05T12:52:03.083Z,8.20
2018-09-05T12:53:03.064Z,12.40
2018-09-05T12:54:03.054Z,9.80